sensor_id;sensor_type;location;lat;lon;timestamp;pressure;altitude;pressure_sealevel;temperature;humidity
39949;BME280;29070;48.102;-1.652;2022-12-10T00:04:21;100790.25;;;-1.95;73.95
39949;BME280;29070;48.102;-1.652;2022-12-10T00:09:21;100792.75;;;-2.06;74.17
39949;BME280;29070;48.102;-1.652;2022-12-10T00:14:21;100798.50;;;-2.02;74.25
39949;BME280;29070;48.102;-1.652;2022-12-10T00:19:22;100807.97;;;-2.03;74.36
39949;BME280;29070;48.102;-1.652;2022-12-10T00:24:22;100802.22;;;-2.06;74.24
39949;BME280;29070;48.102;-1.652;2022-12-10T00:29:22;100803.50;;;-2.12;74.14
39949;BME280;29070;48.102;-1.652;2022-12-10T00:34:23;100797.91;;;-2.06;74.73
39949;BME280;29070;48.102;-1.652;2022-12-10T00:39:23;100793.50;;;-2.04;74.68
39949;BME280;29070;48.102;-1.652;2022-12-10T00:44:24;100802.44;;;-2.09;74.39
39949;BME280;29070;48.102;-1.652;2022-12-10T00:49:24;100791.06;;;-2.18;73.98
39949;BME280;29070;48.102;-1.652;2022-12-10T00:54:24;100784.84;;;-2.27;73.97
39949;BME280;29070;48.102;-1.652;2022-12-10T00:59:25;100793.34;;;-2.38;73.88
39949;BME280;29070;48.102;-1.652;2022-12-10T01:04:25;100797.88;;;-2.41;74.10
39949;BME280;29070;48.102;-1.652;2022-12-10T01:09:27;100798.28;;;-2.47;74.52
39949;BME280;29070;48.102;-1.652;2022-12-10T01:14:33;100796.16;;;-2.54;74.20
39949;BME280;29070;48.102;-1.652;2022-12-10T01:19:34;100802.50;;;-2.46;74.59
39949;BME280;29070;48.102;-1.652;2022-12-10T01:24:35;100801.06;;;-2.51;74.48
39949;BME280;29070;48.102;-1.652;2022-12-10T01:29:35;100807.56;;;-2.58;74.25
39949;BME280;29070;48.102;-1.652;2022-12-10T01:34:36;100810.47;;;-2.62;74.41
39949;BME280;29070;48.102;-1.652;2022-12-10T01:39:36;100813.56;;;-2.70;73.88
39949;BME280;29070;48.102;-1.652;2022-12-10T01:49:43;100816.59;;;-2.89;73.95
39949;BME280;29070;48.102;-1.652;2022-12-10T01:54:45;100817.75;;;-2.93;73.87
39949;BME280;29070;48.102;-1.652;2022-12-10T01:59:48;100821.41;;;-2.97;74.02
39949;BME280;29070;48.102;-1.652;2022-12-10T02:10:10;100839.91;;;-2.92;74.50
39949;BME280;29070;48.102;-1.652;2022-12-10T02:15:15;100838.91;;;-2.90;74.46
39949;BME280;29070;48.102;-1.652;2022-12-10T02:20:19;100835.47;;;-2.90;74.30
39949;BME280;29070;48.102;-1.652;2022-12-10T02:25:26;100842.41;;;-3.03;73.98
39949;BME280;29070;48.102;-1.652;2022-12-10T02:30:31;100851.44;;;-3.11;74.09
39949;BME280;29070;48.102;-1.652;2022-12-10T02:35:33;100850.38;;;-3.08;74.44
39949;BME280;29070;48.102;-1.652;2022-12-10T02:40:36;100850.00;;;-3.15;74.12
39949;BME280;29070;48.102;-1.652;2022-12-10T02:45:41;100868.06;;;-3.16;74.35
39949;BME280;29070;48.102;-1.652;2022-12-10T02:50:42;100866.13;;;-3.13;74.55
39949;BME280;29070;48.102;-1.652;2022-12-10T03:01:12;100853.06;;;-3.10;74.85
39949;BME280;29070;48.102;-1.652;2022-12-10T03:06:30;100860.66;;;-3.08;74.70
39949;BME280;29070;48.102;-1.652;2022-12-10T03:11:31;100862.13;;;-3.04;75.05
39949;BME280;29070;48.102;-1.652;2022-12-10T03:16:37;100859.13;;;-3.11;74.64
39949;BME280;29070;48.102;-1.652;2022-12-10T03:21:40;100861.19;;;-3.16;75.00
39949;BME280;29070;48.102;-1.652;2022-12-10T03:26:41;100869.28;;;-3.22;74.49
39949;BME280;29070;48.102;-1.652;2022-12-10T03:31:44;100872.16;;;-3.27;74.42
39949;BME280;29070;48.102;-1.652;2022-12-10T03:36:44;100865.38;;;-3.28;74.48
39949;BME280;29070;48.102;-1.652;2022-12-10T03:41:45;100873.06;;;-3.28;74.58
39949;BME280;29070;48.102;-1.652;2022-12-10T03:46:45;100865.28;;;-3.26;74.67
39949;BME280;29070;48.102;-1.652;2022-12-10T03:51:46;100856.97;;;-3.30;74.72
39949;BME280;29070;48.102;-1.652;2022-12-10T03:56:46;100863.44;;;-3.24;74.93
39949;BME280;29070;48.102;-1.652;2022-12-10T04:01:47;100851.53;;;-3.25;75.02
39949;BME280;29070;48.102;-1.652;2022-12-10T04:06:47;100863.22;;;-3.21;75.27
39949;BME280;29070;48.102;-1.652;2022-12-10T04:11:48;100856.25;;;-3.19;75.18
39949;BME280;29070;48.102;-1.652;2022-12-10T04:16:48;100857.91;;;-3.18;75.15
39949;BME280;29070;48.102;-1.652;2022-12-10T04:21:49;100850.19;;;-3.18;75.09
39949;BME280;29070;48.102;-1.652;2022-12-10T04:32:18;100863.94;;;-3.19;75.10
39949;BME280;29070;48.102;-1.652;2022-12-10T04:37:20;100858.19;;;-3.22;75.09
39949;BME280;29070;48.102;-1.652;2022-12-10T04:42:21;100859.84;;;-3.21;75.07
39949;BME280;29070;48.102;-1.652;2022-12-10T04:47:21;100860.66;;;-3.21;75.46
39949;BME280;29070;48.102;-1.652;2022-12-10T04:52:22;100877.31;;;-3.14;75.63
39949;BME280;29070;48.102;-1.652;2022-12-10T04:57:22;100863.03;;;-3.05;76.22
39949;BME280;29070;48.102;-1.652;2022-12-10T05:02:23;100872.25;;;-3.02;75.80
39949;BME280;29070;48.102;-1.652;2022-12-10T05:07:23;100873.81;;;-3.00;75.81
39949;BME280;29070;48.102;-1.652;2022-12-10T05:12:23;100873.72;;;-2.98;75.88
39949;BME280;29070;48.102;-1.652;2022-12-10T05:17:24;100876.69;;;-3.04;75.89
39949;BME280;29070;48.102;-1.652;2022-12-10T05:22:24;100892.31;;;-3.08;75.72
39949;BME280;29070;48.102;-1.652;2022-12-10T05:27:43;100879.97;;;-3.02;75.67
39949;BME280;29070;48.102;-1.652;2022-12-10T05:32:43;100887.19;;;-3.08;75.89
39949;BME280;29070;48.102;-1.652;2022-12-10T05:37:44;100883.56;;;-3.18;75.08
39949;BME280;29070;48.102;-1.652;2022-12-10T05:42:44;100892.69;;;-3.27;75.18
39949;BME280;29070;48.102;-1.652;2022-12-10T05:47:44;100899.44;;;-3.38;75.03
39949;BME280;29070;48.102;-1.652;2022-12-10T05:52:45;100892.47;;;-3.36;75.60
39949;BME280;29070;48.102;-1.652;2022-12-10T05:57:45;100888.78;;;-3.32;75.57
39949;BME280;29070;48.102;-1.652;2022-12-10T06:02:45;100899.97;;;-3.33;75.73
39949;BME280;29070;48.102;-1.652;2022-12-10T06:07:46;100894.94;;;-3.35;75.58
39949;BME280;29070;48.102;-1.652;2022-12-10T06:12:46;100889.19;;;-3.38;75.56
39949;BME280;29070;48.102;-1.652;2022-12-10T06:17:46;100898.44;;;-3.49;75.13
39949;BME280;29070;48.102;-1.652;2022-12-10T06:22:47;100901.81;;;-3.48;75.29
39949;BME280;29070;48.102;-1.652;2022-12-10T06:27:47;100908.88;;;-3.52;75.36
39949;BME280;29070;48.102;-1.652;2022-12-10T06:32:47;100913.19;;;-3.52;75.29
39949;BME280;29070;48.102;-1.652;2022-12-10T06:37:49;100924.19;;;-3.50;75.43
39949;BME280;29070;48.102;-1.652;2022-12-10T06:42:52;100924.09;;;-3.49;75.47
39949;BME280;29070;48.102;-1.652;2022-12-10T06:47:53;100927.16;;;-3.43;75.78
39949;BME280;29070;48.102;-1.652;2022-12-10T06:52:53;100933.50;;;-3.49;75.71
39949;BME280;29070;48.102;-1.652;2022-12-10T06:57:54;100917.47;;;-3.53;75.55
39949;BME280;29070;48.102;-1.652;2022-12-10T07:02:54;100929.78;;;-3.58;75.40
39949;BME280;29070;48.102;-1.652;2022-12-10T07:07:55;100941.50;;;-3.54;75.78
39949;BME280;29070;48.102;-1.652;2022-12-10T07:12:55;100939.47;;;-3.49;76.33
39949;BME280;29070;48.102;-1.652;2022-12-10T07:17:56;100954.66;;;-3.46;76.14
39949;BME280;29070;48.102;-1.652;2022-12-10T07:22:56;100946.41;;;-3.51;76.22
39949;BME280;29070;48.102;-1.652;2022-12-10T07:27:57;100955.06;;;-3.52;76.08
39949;BME280;29070;48.102;-1.652;2022-12-10T07:32:57;100953.31;;;-3.51;76.06
39949;BME280;29070;48.102;-1.652;2022-12-10T07:37:57;100966.53;;;-3.57;75.86
39949;BME280;29070;48.102;-1.652;2022-12-10T07:42:58;100963.34;;;-3.61;75.53
39949;BME280;29070;48.102;-1.652;2022-12-10T07:47:58;100971.03;;;-3.61;75.84
39949;BME280;29070;48.102;-1.652;2022-12-10T07:52:58;100981.94;;;-3.57;76.29
39949;BME280;29070;48.102;-1.652;2022-12-10T07:57:59;100988.31;;;-3.50;76.29
39949;BME280;29070;48.102;-1.652;2022-12-10T08:02:59;100992.88;;;-3.41;76.27
39949;BME280;29070;48.102;-1.652;2022-12-10T08:07:59;100993.50;;;-3.37;76.52
39949;BME280;29070;48.102;-1.652;2022-12-10T08:13:00;100999.06;;;-3.31;76.53
39949;BME280;29070;48.102;-1.652;2022-12-10T08:18:00;101002.75;;;-3.22;76.70
39949;BME280;29070;48.102;-1.652;2022-12-10T08:23:00;101003.28;;;-3.17;76.75
39949;BME280;29070;48.102;-1.652;2022-12-10T08:28:01;101007.22;;;-3.11;77.09
39949;BME280;29070;48.102;-1.652;2022-12-10T08:33:03;101016.28;;;-3.05;77.12
39949;BME280;29070;48.102;-1.652;2022-12-10T08:38:03;101022.13;;;-3.03;76.99
39949;BME280;29070;48.102;-1.652;2022-12-10T08:43:04;101025.00;;;-2.95;76.94
39949;BME280;29070;48.102;-1.652;2022-12-10T08:48:04;101022.97;;;-2.90;77.22
39949;BME280;29070;48.102;-1.652;2022-12-10T08:53:04;101023.19;;;-2.80;77.33
39949;BME280;29070;48.102;-1.652;2022-12-10T08:58:05;101029.69;;;-2.75;77.03
39949;BME280;29070;48.102;-1.652;2022-12-10T09:03:05;101022.59;;;-2.71;77.28
39949;BME280;29070;48.102;-1.652;2022-12-10T09:08:06;101026.31;;;-2.62;77.08
39949;BME280;29070;48.102;-1.652;2022-12-10T09:13:06;101028.56;;;-2.58;77.27
39949;BME280;29070;48.102;-1.652;2022-12-10T09:18:07;101031.44;;;-2.50;77.55
39949;BME280;29070;48.102;-1.652;2022-12-10T09:23:07;101038.44;;;-2.39;77.35
39949;BME280;29070;48.102;-1.652;2022-12-10T09:28:07;101042.94;;;-2.30;77.63
39949;BME280;29070;48.102;-1.652;2022-12-10T09:33:08;101043.03;;;-2.18;77.66
39949;BME280;29070;48.102;-1.652;2022-12-10T09:38:08;101050.06;;;-2.07;78.26
39949;BME280;29070;48.102;-1.652;2022-12-10T09:43:28;101035.72;;;-1.99;77.86
39949;BME280;29070;48.102;-1.652;2022-12-10T09:48:45;101037.44;;;-1.86;78.22
39949;BME280;29070;48.102;-1.652;2022-12-10T09:53:51;101045.13;;;-1.74;78.29
39949;BME280;29070;48.102;-1.652;2022-12-10T09:59:01;101046.53;;;-1.57;78.57
39949;BME280;29070;48.102;-1.652;2022-12-10T10:04:04;101052.25;;;-1.40;78.73
39949;BME280;29070;48.102;-1.652;2022-12-10T10:09:06;101051.16;;;-1.25;78.54
39949;BME280;29070;48.102;-1.652;2022-12-10T10:14:14;101062.00;;;-1.08;78.88
39949;BME280;29070;48.102;-1.652;2022-12-10T10:19:22;101065.00;;;-0.90;79.40
39949;BME280;29070;48.102;-1.652;2022-12-10T10:24:31;101057.88;;;-0.75;78.95
39949;BME280;29070;48.102;-1.652;2022-12-10T10:29:33;101061.13;;;-0.61;79.60
39949;BME280;29070;48.102;-1.652;2022-12-10T10:34:39;101047.16;;;-0.47;79.20
39949;BME280;29070;48.102;-1.652;2022-12-10T10:39:46;101042.53;;;-0.30;79.11
39949;BME280;29070;48.102;-1.652;2022-12-10T10:44:47;101041.34;;;-0.15;79.74
39949;BME280;29070;48.102;-1.652;2022-12-10T10:49:47;101029.63;;;0.04;79.89
39949;BME280;29070;48.102;-1.652;2022-12-10T10:54:48;101036.28;;;0.17;79.33
39949;BME280;29070;48.102;-1.652;2022-12-10T10:59:51;101031.81;;;0.31;80.14
39949;BME280;29070;48.102;-1.652;2022-12-10T11:04:54;101029.78;;;0.46;79.87
39949;BME280;29070;48.102;-1.652;2022-12-10T11:09:55;101035.75;;;0.57;79.79
39949;BME280;29070;48.102;-1.652;2022-12-10T11:14:56;101025.94;;;0.72;80.15
39949;BME280;29070;48.102;-1.652;2022-12-10T11:20:15;101024.00;;;0.86;79.72
39949;BME280;29070;48.102;-1.652;2022-12-10T11:25:19;101027.25;;;0.99;80.05
39949;BME280;29070;48.102;-1.652;2022-12-10T11:30:26;101018.38;;;1.13;79.88
39949;BME280;29070;48.102;-1.652;2022-12-10T11:50:53;101021.13;;;1.73;79.87
39949;BME280;29070;48.102;-1.652;2022-12-10T12:17:23;100997.38;;;2.49;79.79
39949;BME280;29070;48.102;-1.652;2022-12-10T12:22:29;100986.47;;;2.65;79.51
39949;BME280;29070;48.102;-1.652;2022-12-10T12:27:38;100987.53;;;2.82;79.54
39949;BME280;29070;48.102;-1.652;2022-12-10T12:38:11;100985.44;;;3.15;79.82
39949;BME280;29070;48.102;-1.652;2022-12-10T12:43:23;100974.66;;;3.29;79.74
39949;BME280;29070;48.102;-1.652;2022-12-10T12:53:43;100960.44;;;3.61;79.51
39949;BME280;29070;48.102;-1.652;2022-12-10T12:58:56;100956.28;;;3.78;79.49
39949;BME280;29070;48.102;-1.652;2022-12-10T13:03:59;100959.88;;;3.95;79.23
39949;BME280;29070;48.102;-1.652;2022-12-10T13:14:30;100951.28;;;4.12;78.47
39949;BME280;29070;48.102;-1.652;2022-12-10T13:19:31;100941.66;;;4.23;78.11
39949;BME280;29070;48.102;-1.652;2022-12-10T13:34:44;100955.84;;;4.46;77.37
39949;BME280;29070;48.102;-1.652;2022-12-10T13:39:54;100956.34;;;4.50;77.40
39949;BME280;29070;48.102;-1.652;2022-12-10T13:45:02;100949.75;;;4.55;76.98
39949;BME280;29070;48.102;-1.652;2022-12-10T13:50:18;100943.88;;;4.53;76.61
39949;BME280;29070;48.102;-1.652;2022-12-10T13:55:25;100952.56;;;4.62;76.43
39949;BME280;29070;48.102;-1.652;2022-12-10T14:00:56;100957.31;;;4.67;76.33
39949;BME280;29070;48.102;-1.652;2022-12-10T14:11:22;100950.75;;;4.81;75.71
39949;BME280;29070;48.102;-1.652;2022-12-10T14:16:23;100947.72;;;4.85;75.74
39949;BME280;29070;48.102;-1.652;2022-12-10T14:21:27;100947.72;;;4.85;75.44
39949;BME280;29070;48.102;-1.652;2022-12-10T14:26:35;100946.72;;;4.86;75.37
39949;BME280;29070;48.102;-1.652;2022-12-10T14:31:39;100953.44;;;4.89;75.06
39949;BME280;29070;48.102;-1.652;2022-12-10T14:36:48;100962.19;;;4.88;74.74
39949;BME280;29070;48.102;-1.652;2022-12-10T14:41:52;100956.31;;;4.86;74.68
39949;BME280;29070;48.102;-1.652;2022-12-10T14:47:06;100955.81;;;4.82;74.03
39949;BME280;29070;48.102;-1.652;2022-12-10T14:52:15;100953.50;;;4.79;73.92
39949;BME280;29070;48.102;-1.652;2022-12-10T14:57:27;100957.09;;;4.78;73.94
39949;BME280;29070;48.102;-1.652;2022-12-10T15:02:34;100948.47;;;4.77;73.96
39949;BME280;29070;48.102;-1.652;2022-12-10T15:07:37;100962.22;;;4.70;73.87
39949;BME280;29070;48.102;-1.652;2022-12-10T15:12:38;100967.03;;;4.65;74.08
39949;BME280;29070;48.102;-1.652;2022-12-10T15:17:51;100963.25;;;4.59;72.51
39949;BME280;29070;48.102;-1.652;2022-12-10T15:22:53;100956.22;;;4.51;73.55
39949;BME280;29070;48.102;-1.652;2022-12-10T15:28:00;100957.91;;;4.43;73.43
39949;BME280;29070;48.102;-1.652;2022-12-10T15:33:01;100960.13;;;4.37;73.54
39949;BME280;29070;48.102;-1.652;2022-12-10T15:38:01;100960.22;;;4.28;73.33
39949;BME280;29070;48.102;-1.652;2022-12-10T15:43:26;100956.06;;;4.17;72.88
39949;BME280;29070;48.102;-1.652;2022-12-10T15:48:29;100959.22;;;4.11;73.07
39949;BME280;29070;48.102;-1.652;2022-12-10T15:53:36;100961.06;;;4.00;73.24
39949;BME280;29070;48.102;-1.652;2022-12-10T15:58:41;100955.28;;;3.89;72.89
39949;BME280;29070;48.102;-1.652;2022-12-10T16:03:42;100964.22;;;3.76;72.86
39949;BME280;29070;48.102;-1.652;2022-12-10T16:08:42;100953.72;;;3.68;73.04
39949;BME280;29070;48.102;-1.652;2022-12-10T16:13:48;100961.41;;;3.60;72.93
39949;BME280;29070;48.102;-1.652;2022-12-10T16:18:50;100965.81;;;3.50;73.09
39949;BME280;29070;48.102;-1.652;2022-12-10T16:23:50;100970.22;;;3.39;73.11
39949;BME280;29070;48.102;-1.652;2022-12-10T16:28:50;100964.53;;;3.26;72.76
39949;BME280;29070;48.102;-1.652;2022-12-10T16:33:51;100968.25;;;3.14;72.71
39949;BME280;29070;48.102;-1.652;2022-12-10T16:38:52;100958.84;;;2.93;72.56
39949;BME280;29070;48.102;-1.652;2022-12-10T16:43:53;100963.81;;;2.77;72.60
39949;BME280;29070;48.102;-1.652;2022-12-10T16:48:53;100964.88;;;2.64;72.38
39949;BME280;29070;48.102;-1.652;2022-12-10T16:53:54;100965.59;;;2.47;72.15
39949;BME280;29070;48.102;-1.652;2022-12-10T16:58:55;100974.72;;;2.32;72.71
39949;BME280;29070;48.102;-1.652;2022-12-10T17:03:56;100970.84;;;2.16;72.42
39949;BME280;29070;48.102;-1.652;2022-12-10T17:08:56;100963.59;;;2.00;72.78
39949;BME280;29070;48.102;-1.652;2022-12-10T17:13:57;100958.41;;;1.90;72.67
39949;BME280;29070;48.102;-1.652;2022-12-10T17:18:57;100946.41;;;1.80;72.76
39949;BME280;29070;48.102;-1.652;2022-12-10T17:23:58;100939.97;;;1.74;73.20
39949;BME280;29070;48.102;-1.652;2022-12-10T17:29:04;100935.59;;;1.65;73.45
39949;BME280;29070;48.102;-1.652;2022-12-10T17:34:05;100945.88;;;1.45;73.05
39949;BME280;29070;48.102;-1.652;2022-12-10T17:39:12;100950.97;;;1.36;72.62
39949;BME280;29070;48.102;-1.652;2022-12-10T17:44:12;100958.03;;;1.24;72.70
39949;BME280;29070;48.102;-1.652;2022-12-10T17:49:15;100957.66;;;1.07;72.92
39949;BME280;29070;48.102;-1.652;2022-12-10T17:54:15;100956.25;;;1.03;73.42
39949;BME280;29070;48.102;-1.652;2022-12-10T17:59:16;100966.84;;;1.00;73.35
39949;BME280;29070;48.102;-1.652;2022-12-10T18:04:16;100967.34;;;0.94;73.05
39949;BME280;29070;48.102;-1.652;2022-12-10T18:09:16;100971.38;;;0.87;73.55
39949;BME280;29070;48.102;-1.652;2022-12-10T18:14:17;100970.50;;;0.76;73.11
39949;BME280;29070;48.102;-1.652;2022-12-10T18:19:17;100964.47;;;0.66;73.47
39949;BME280;29070;48.102;-1.652;2022-12-10T18:24:18;100975.50;;;0.57;73.16
39949;BME280;29070;48.102;-1.652;2022-12-10T18:29:18;100972.03;;;0.47;73.91
39949;BME280;29070;48.102;-1.652;2022-12-10T18:34:19;100969.94;;;0.41;73.65
39949;BME280;29070;48.102;-1.652;2022-12-10T18:39:22;100965.28;;;0.34;73.59
39949;BME280;29070;48.102;-1.652;2022-12-10T18:44:24;100973.38;;;0.30;73.56
39949;BME280;29070;48.102;-1.652;2022-12-10T18:49:25;100962.59;;;0.25;73.83
39949;BME280;29070;48.102;-1.652;2022-12-10T18:54:27;100975.88;;;0.20;73.74
39949;BME280;29070;48.102;-1.652;2022-12-10T18:59:27;100983.84;;;0.17;73.78
39949;BME280;29070;48.102;-1.652;2022-12-10T19:04:28;100974.03;;;0.11;74.11
39949;BME280;29070;48.102;-1.652;2022-12-10T19:09:28;100969.09;;;0.08;74.04
39949;BME280;29070;48.102;-1.652;2022-12-10T19:14:29;100963.56;;;0.01;74.10
39949;BME280;29070;48.102;-1.652;2022-12-10T19:19:29;100964.06;;;-0.05;74.06
39949;BME280;29070;48.102;-1.652;2022-12-10T19:24:30;100963.50;;;-0.09;73.38
39949;BME280;29070;48.102;-1.652;2022-12-10T19:29:30;100972.38;;;-0.13;73.58
39949;BME280;29070;48.102;-1.652;2022-12-10T19:34:30;100956.44;;;-0.18;74.08
39949;BME280;29070;48.102;-1.652;2022-12-10T19:39:32;100956.00;;;-0.23;74.14
39949;BME280;29070;48.102;-1.652;2022-12-10T19:44:34;100957.03;;;-0.26;74.22
39949;BME280;29070;48.102;-1.652;2022-12-10T19:49:35;100949.88;;;-0.22;74.16
39949;BME280;29070;48.102;-1.652;2022-12-10T19:54:35;100952.47;;;-0.22;74.25
39949;BME280;29070;48.102;-1.652;2022-12-10T19:59:36;100947.53;;;-0.25;74.39
39949;BME280;29070;48.102;-1.652;2022-12-10T20:04:38;100937.59;;;-0.30;74.06
39949;BME280;29070;48.102;-1.652;2022-12-10T20:09:38;100938.53;;;-0.31;74.25
39949;BME280;29070;48.102;-1.652;2022-12-10T20:14:38;100924.94;;;-0.33;74.68
39949;BME280;29070;48.102;-1.652;2022-12-10T20:19:39;100916.50;;;-0.35;74.41
39949;BME280;29070;48.102;-1.652;2022-12-10T20:24:39;100917.78;;;-0.41;74.32
39949;BME280;29070;48.102;-1.652;2022-12-10T20:29:40;100907.94;;;-0.47;74.79
39949;BME280;29070;48.102;-1.652;2022-12-10T20:34:40;100920.97;;;-0.48;74.55
39949;BME280;29070;48.102;-1.652;2022-12-10T20:39:41;100912.19;;;-0.57;74.04
39949;BME280;29070;48.102;-1.652;2022-12-10T20:44:41;100911.00;;;-0.64;73.92
39949;BME280;29070;48.102;-1.652;2022-12-10T20:49:42;100906.09;;;-0.67;74.11
39949;BME280;29070;48.102;-1.652;2022-12-10T20:54:42;100907.25;;;-0.71;74.57
39949;BME280;29070;48.102;-1.652;2022-12-10T20:59:42;100911.56;;;-0.72;75.00
39949;BME280;29070;48.102;-1.652;2022-12-10T21:04:43;100911.25;;;-0.67;74.59
39949;BME280;29070;48.102;-1.652;2022-12-10T21:09:44;100909.34;;;-0.65;74.93
39949;BME280;29070;48.102;-1.652;2022-12-10T21:14:44;100915.44;;;-0.66;74.53
39949;BME280;29070;48.102;-1.652;2022-12-10T21:19:45;100915.59;;;-0.68;75.01
39949;BME280;29070;48.102;-1.652;2022-12-10T21:24:45;100905.00;;;-0.65;75.04
39949;BME280;29070;48.102;-1.652;2022-12-10T21:29:46;100901.75;;;-0.67;75.27
39949;BME280;29070;48.102;-1.652;2022-12-10T21:34:46;100894.97;;;-0.68;74.78
39949;BME280;29070;48.102;-1.652;2022-12-10T21:39:46;100880.41;;;-0.69;74.51
39949;BME280;29070;48.102;-1.652;2022-12-10T21:44:51;100879.03;;;-0.73;74.81
39949;BME280;29070;48.102;-1.652;2022-12-10T21:49:52;100869.75;;;-0.75;74.89
39949;BME280;29070;48.102;-1.652;2022-12-10T21:54:53;100866.69;;;-0.81;75.10
39949;BME280;29070;48.102;-1.652;2022-12-10T21:59:53;100860.63;;;-0.80;75.38
39949;BME280;29070;48.102;-1.652;2022-12-10T22:04:53;100858.38;;;-0.84;75.01
39949;BME280;29070;48.102;-1.652;2022-12-10T22:09:54;100848.56;;;-0.90;74.82
39949;BME280;29070;48.102;-1.652;2022-12-10T22:14:54;100853.13;;;-0.94;74.76
39949;BME280;29070;48.102;-1.652;2022-12-10T22:19:55;100848.78;;;-0.93;75.07
39949;BME280;29070;48.102;-1.652;2022-12-10T22:24:55;100846.47;;;-0.97;74.80
39949;BME280;29070;48.102;-1.652;2022-12-10T22:29:56;100850.31;;;-1.02;75.01
39949;BME280;29070;48.102;-1.652;2022-12-10T22:34:56;100849.59;;;-1.04;74.90
39949;BME280;29070;48.102;-1.652;2022-12-10T22:39:57;100853.34;;;-1.08;74.73
39949;BME280;29070;48.102;-1.652;2022-12-10T22:45:06;100860.59;;;-1.13;74.75
39949;BME280;29070;48.102;-1.652;2022-12-10T22:50:07;100866.94;;;-1.18;74.66
39949;BME280;29070;48.102;-1.652;2022-12-10T22:55:08;100869.94;;;-1.24;74.92
39949;BME280;29070;48.102;-1.652;2022-12-10T23:00:10;100875.22;;;-1.25;74.93
39949;BME280;29070;48.102;-1.652;2022-12-10T23:05:15;100875.00;;;-1.22;75.00
39949;BME280;29070;48.102;-1.652;2022-12-10T23:10:16;100871.13;;;-1.28;75.66
39949;BME280;29070;48.102;-1.652;2022-12-10T23:15:17;100871.13;;;-1.28;75.81
39949;BME280;29070;48.102;-1.652;2022-12-10T23:20:17;100873.97;;;-1.20;75.61
39949;BME280;29070;48.102;-1.652;2022-12-10T23:25:18;100872.19;;;-1.08;75.74
39949;BME280;29070;48.102;-1.652;2022-12-10T23:30:19;100854.41;;;-1.00;76.01
39949;BME280;29070;48.102;-1.652;2022-12-10T23:35:19;100858.06;;;-0.91;75.75
39949;BME280;29070;48.102;-1.652;2022-12-10T23:40:19;100848.09;;;-0.84;76.06
39949;BME280;29070;48.102;-1.652;2022-12-10T23:45:21;100854.66;;;-0.80;76.09
39949;BME280;29070;48.102;-1.652;2022-12-10T23:50:22;100845.97;;;-0.79;76.26
39949;BME280;29070;48.102;-1.652;2022-12-10T23:55:23;100837.31;;;-0.78;76.01
